Time;durP1;ratioP1;P1;durP2;ratioP2;P2;SDS_P1;SDS_P2;PMS_P1;PMS_P2;Temp;Humidity;BMP_temperature;BMP_pressure;BME280_temperature;BME280_humidity;BME280_pressure;Samples;Min_cycle;Max_cycle;Signal;HPM_P1;HPM_P2
2023/11/03 00:02:03;;;;;;;3.50;1.10;;;9.50;99.90;;;9.97;100.00;95091.88;5028838;28;20470;-84
2023/11/03 00:04:36;;;;;;;5.80;1.30;;;9.50;99.90;;;9.95;100.00;95096.59;5031406;28;20949;-84
2023/11/03 00:07:08;;;;;;;5.20;1.57;;;9.40;99.90;;;9.95;100.00;95088.75;5028979;28;20448;-84
2023/11/03 00:09:38;;;;;;;5.67;2.00;;;9.50;99.90;;;9.95;100.00;95087.97;5030339;28;20468;-84
2023/11/03 00:12:10;;;;;;;5.13;1.10;;;9.50;99.90;;;9.87;100.00;95088.44;5029071;28;20523;-84
2023/11/03 00:14:43;;;;;;;6.07;1.30;;;9.30;99.90;;;9.89;100.00;95086.38;5027548;28;20501;-84
2023/11/03 00:17:13;;;;;;;7.97;1.17;;;9.40;99.90;;;9.95;100.00;95085.34;5028418;28;20450;-86
2023/11/03 00:19:46;;;;;;;5.23;1.10;;;9.40;99.90;;;9.93;100.00;95087.44;5027444;28;20465;-83
2023/11/03 00:22:18;;;;;;;6.77;1.40;;;9.40;99.90;;;9.99;100.00;95089.03;5027333;28;20453;-84
2023/11/03 00:24:47;;;;;;;4.67;1.70;;;9.50;99.90;;;10.01;100.00;95094.78;5026990;28;20490;-84
2023/11/03 00:27:21;;;;;;;3.40;1.30;;;9.40;99.90;;;9.97;100.00;95085.88;5029808;28;20469;-84
2023/11/03 00:29:53;;;;;;;1.47;1.07;;;9.40;99.90;;;9.99;100.00;95082.00;5027044;28;20474;-84
2023/11/03 00:32:23;;;;;;;6.37;1.37;;;9.50;99.90;;;10.04;100.00;95084.59;5027219;28;20490;-84
2023/11/03 00:34:54;;;;;;;3.47;0.87;;;9.50;99.90;;;10.00;100.00;95090.59;5027750;28;20491;-84
2023/11/03 00:37:25;;;;;;;1.70;1.10;;;9.50;99.90;;;9.99;100.00;95089.81;5028433;28;20551;-83
2023/11/03 00:39:55;;;;;;;1.80;1.13;;;9.50;99.90;;;10.01;100.00;95082.50;5028078;28;20652;-84
2023/11/03 00:42:25;;;;;;;5.00;1.60;;;9.50;99.90;;;10.05;100.00;95090.63;5026141;28;21040;-84
2023/11/03 00:44:56;;;;;;;2.53;1.27;;;9.50;99.90;;;10.06;100.00;95089.59;5031336;28;20462;-83
2023/11/03 00:47:26;;;;;;;1.63;0.90;;;9.50;99.90;;;10.08;100.00;95095.31;5027920;28;20454;-84
2023/11/03 00:49:56;;;;;;;3.27;1.23;;;9.50;99.90;;;10.06;100.00;95103.44;5026837;28;20462;-84
2023/11/03 00:52:26;;;;;;;4.03;1.10;;;9.40;99.90;;;10.08;100.00;95105.75;5030979;28;20523;-84
2023/11/03 00:54:56;;;;;;;12.30;1.77;;;9.50;99.90;;;10.08;100.00;95106.56;5031865;28;20501;-85
2023/11/03 00:57:28;;;;;;;2.50;1.17;;;9.50;99.90;;;10.06;100.00;95107.84;5027009;28;20454;-84
2023/11/03 00:59:59;;;;;;;2.27;1.10;;;9.40;99.90;;;10.04;100.00;95102.88;5027806;28;21440;-84
2023/11/03 01:02:30;;;;;;;2.80;1.37;;;9.40;99.90;;;10.04;100.00;95107.31;5028366;28;20467;-84
2023/11/03 01:05:00;;;;;;;7.57;1.17;;;9.40;99.90;;;10.01;100.00;95110.44;5028053;28;20461;-84
2023/11/03 01:07:30;;;;;;;5.43;1.10;;;9.30;99.90;;;9.96;100.00;95113.03;5026703;28;20834;-84
2023/11/03 01:10:01;;;;;;;4.67;1.43;;;9.40;99.90;;;9.90;100.00;95114.03;5027460;28;20473;-84
2023/11/03 01:12:31;;;;;;;6.10;1.00;;;9.30;99.90;;;9.91;100.00;95113.00;5027788;28;21002;-84
2023/11/03 01:15:06;;;;;;;3.70;1.57;;;9.30;99.90;;;9.96;100.00;95105.22;5028621;28;20513;-84
2023/11/03 01:17:37;;;;;;;3.90;1.33;;;9.30;99.90;;;9.99;100.00;95108.09;5028447;28;20461;-84
2023/11/03 01:20:19;;;;;;;2.50;1.50;;;9.30;99.90;;;9.96;100.00;95108.59;5027469;28;20489;-85
2023/11/03 01:22:49;;;;;;;3.90;1.13;;;9.40;99.90;;;9.96;100.00;95110.44;5027649;28;20492;-84
2023/11/03 01:25:21;;;;;;;8.83;1.10;;;9.50;99.90;;;9.96;100.00;95108.59;5026566;28;20458;-84
2023/11/03 01:27:51;;;;;;;3.37;1.40;;;9.50;99.90;;;9.98;100.00;95097.91;5027280;28;20457;-84
2023/11/03 01:30:25;;;;;;;5.23;1.33;;;9.40;99.90;;;9.99;100.00;95096.88;5027802;28;20468;-84
2023/11/03 01:32:56;;;;;;;3.20;1.37;;;9.40;99.90;;;9.99;100.00;95095.03;5025817;28;20565;-84
2023/11/03 01:35:25;;;;;;;7.33;1.07;;;9.40;99.90;;;10.02;100.00;95097.13;5026564;28;20478;-84
2023/11/03 01:37:56;;;;;;;11.90;1.23;;;9.40;99.90;;;10.02;100.00;95099.75;5027757;28;20483;-84
2023/11/03 01:40:26;;;;;;;1.80;0.90;;;9.40;99.90;;;10.00;100.00;95103.63;5029450;28;20470;-85
2023/11/03 01:42:57;;;;;;;5.70;1.43;;;9.50;99.90;;;9.93;100.00;95096.03;5027865;28;20461;-84
2023/11/03 01:45:29;;;;;;;3.80;1.00;;;9.40;99.90;;;9.93;100.00;95097.88;5025302;28;20552;-84
2023/11/03 01:47:59;;;;;;;2.80;1.00;;;9.40;99.90;;;9.93;100.00;95098.66;5023478;28;20564;-84
2023/11/03 01:50:29;;;;;;;11.83;1.60;;;9.40;99.90;;;9.88;100.00;95092.63;5027771;28;20818;-84
2023/11/03 01:52:58;;;;;;;3.23;1.40;;;9.40;99.90;;;9.80;100.00;95095.72;5026392;28;20945;-84
2023/11/03 01:55:29;;;;;;;4.40;1.40;;;9.30;99.90;;;9.80;100.00;95088.69;5027209;28;20537;-83
2023/11/03 01:57:59;;;;;;;5.17;1.20;;;9.30;99.90;;;9.74;100.00;95110.59;5026885;28;20485;-84
2023/11/03 02:00:32;;;;;;;2.50;1.30;;;9.20;99.90;;;9.75;100.00;95093.91;5027407;28;20533;-84
2023/11/03 02:03:03;;;;;;;3.33;1.30;;;9.30;99.90;;;9.73;100.00;95095.19;5026962;28;20511;-84
2023/11/03 02:05:33;;;;;;;4.57;1.40;;;9.30;99.90;;;9.68;100.00;95090.75;5026011;28;20983;-85
2023/11/03 02:08:04;;;;;;;7.23;1.37;;;9.30;99.90;;;9.65;100.00;95093.84;5027572;28;20494;-84
2023/11/03 02:10:35;;;;;;;2.93;1.33;;;9.20;99.90;;;9.68;100.00;95097.78;5028847;28;20495;-84
2023/11/03 02:13:05;;;;;;;1.53;0.93;;;9.20;99.90;;;9.64;100.00;95099.31;5025574;28;20488;-84
2023/11/03 02:15:37;;;;;;;5.73;1.23;;;9.30;99.90;;;9.59;100.00;95108.69;5025427;28;20494;-84
2023/11/03 02:18:09;;;;;;;4.03;1.50;;;9.20;99.90;;;9.65;100.00;95098.28;5026770;28;20466;-84
2023/11/03 02:20:39;;;;;;;4.83;1.17;;;9.20;99.90;;;9.69;100.00;95104.53;5033103;28;20472;-84
2023/11/03 02:23:10;;;;;;;5.03;1.20;;;9.30;99.90;;;9.60;100.00;95110.25;5031530;28;20951;-84
2023/11/03 02:25:41;;;;;;;5.40;1.40;;;9.20;99.90;;;9.55;100.00;95105.00;5029804;28;20477;-84
2023/11/03 02:28:11;;;;;;;3.90;1.37;;;9.20;99.90;;;9.53;100.00;95098.47;5031487;28;20959;-84
2023/11/03 02:30:42;;;;;;;6.20;1.20;;;9.20;99.90;;;9.56;100.00;95100.56;5031502;28;20473;-84
2023/11/03 02:33:13;;;;;;;3.57;1.30;;;9.20;99.90;;;9.60;100.00;95093.81;5028877;28;20558;-84
2023/11/03 02:35:46;;;;;;;8.13;1.63;;;9.20;99.90;;;9.56;100.00;95103.97;5029337;28;20501;-83
2023/11/03 02:38:18;;;;;;;5.07;1.27;;;9.20;99.90;;;9.57;100.00;95100.34;5028295;28;20462;-84
2023/11/03 02:40:54;;;;;;;8.00;1.40;;;9.10;99.90;;;9.52;100.00;95089.88;5031815;28;20817;-83
2023/11/03 02:43:25;;;;;;;3.30;1.40;;;9.10;99.90;;;9.54;100.00;95095.59;5031346;28;21144;-83
2023/11/03 02:45:54;;;;;;;2.10;1.07;;;9.10;99.90;;;9.56;100.00;95101.38;5029735;28;20488;-83
2023/11/03 02:48:23;;;;;;;4.40;1.23;;;9.00;99.90;;;9.54;100.00;95100.06;5032134;28;20558;-84
2023/11/03 02:50:54;;;;;;;9.80;1.60;;;9.00;99.90;;;9.58;100.00;95101.88;5030936;28;20530;-84
2023/11/03 02:53:25;;;;;;;1.90;1.30;;;9.00;99.90;;;9.59;100.00;95103.47;5030919;28;20833;-84
2023/11/03 02:55:55;;;;;;;4.20;1.10;;;9.00;99.90;;;9.60;100.00;95099.81;5030035;28;20494;-84
2023/11/03 02:58:29;;;;;;;8.93;1.87;;;9.00;99.90;;;9.55;100.00;95096.38;5029152;28;20482;-84
2023/11/03 03:00:58;;;;;;;3.50;1.27;;;9.00;99.90;;;9.58;100.00;95101.88;5030265;28;20583;-85
2023/11/03 03:03:28;;;;;;;5.73;1.33;;;9.00;99.90;;;9.64;100.00;95094.09;5028772;28;20470;-83
2023/11/03 03:05:58;;;;;;;8.23;3.57;;;9.00;99.90;;;9.56;100.00;95098.75;5029764;28;20469;-81
2023/11/03 03:08:29;;;;;;;7.73;1.60;;;8.90;99.90;;;9.57;100.00;95100.34;5030189;28;20457;-84
2023/11/03 03:11:00;;;;;;;4.57;1.97;;;8.90;99.90;;;9.51;100.00;95101.31;5027749;28;20462;-83
2023/11/03 03:13:31;;;;;;;4.03;1.37;;;8.90;99.90;;;9.51;100.00;95109.16;5026974;28;20465;-84
2023/11/03 03:16:01;;;;;;;3.70;1.37;;;9.00;99.90;;;9.56;100.00;95108.41;5030002;28;20489;-84
2023/11/03 03:18:33;;;;;;;5.17;1.63;;;9.00;99.90;;;9.54;100.00;95103.44;5029773;28;20457;-84
2023/11/03 03:21:02;;;;;;;2.60;1.47;;;8.90;99.90;;;9.42;100.00;95113.28;5028618;28;20501;-84
2023/11/03 03:23:35;;;;;;;4.50;1.90;;;8.80;99.90;;;9.42;100.00;95121.09;5026905;28;20476;-84
2023/11/03 03:26:06;;;;;;;3.13;1.80;;;8.90;99.90;;;9.37;100.00;95120.31;5028924;28;20462;-84
2023/11/03 03:28:35;;;;;;;56.47;27.73;;;8.80;99.90;;;9.38;100.00;95121.84;5029234;28;20999;-82
2023/11/03 03:31:06;;;;;;;9.70;4.23;;;8.90;99.90;;;9.43;100.00;95120.06;5028105;28;20515;-84
2023/11/03 03:33:35;;;;;;;2.03;1.23;;;8.90;99.90;;;9.39;100.00;95123.44;5029059;28;20465;-84
2023/11/03 03:36:09;;;;;;;15.23;2.70;;;8.80;99.90;;;9.37;100.00;95126.28;5024670;28;21030;-85
2023/11/03 03:38:39;;;;;;;6.20;1.70;;;8.80;99.90;;;9.43;100.00;95134.94;5033054;28;20519;-80
2023/11/03 03:41:13;;;;;;;10.43;1.30;;;8.90;99.90;;;9.36;100.00;95129.94;5029866;28;20468;-80
2023/11/03 03:43:43;;;;;;;2.50;1.10;;;8.70;99.90;;;9.40;100.00;95136.22;5029058;28;20503;-80
2023/11/03 03:46:12;;;;;;;1.97;1.03;;;8.70;99.90;;;9.32;100.00;95138.50;5025071;28;20470;-80
2023/11/03 03:48:42;;;;;;;6.77;1.30;;;8.80;99.90;;;9.30;100.00;95138.75;5028394;28;20450;-80
2023/11/03 03:51:15;;;;;;;3.47;1.30;;;8.70;99.90;;;9.35;100.00;95140.59;5027846;28;20497;-80
2023/11/03 03:53:46;;;;;;;3.77;1.07;;;8.70;99.90;;;9.38;100.00;95133.06;5027697;28;20863;-81
2023/11/03 03:56:16;;;;;;;5.37;1.17;;;8.80;99.90;;;9.38;100.00;95127.84;5028187;28;20500;-80
2023/11/03 03:58:46;;;;;;;3.20;1.37;;;8.80;99.90;;;9.38;100.00;95129.66;5028719;28;20482;-79
2023/11/03 04:01:16;;;;;;;3.10;1.23;;;8.70;99.90;;;9.35;100.00;95117.13;5025130;28;20454;-80
2023/11/03 04:03:45;;;;;;;35.67;14.13;;;8.80;99.90;;;9.33;100.00;95129.66;5023126;28;20462;-77
2023/11/03 04:06:15;;;;;;;3.20;1.10;;;8.70;99.90;;;9.29;100.00;95123.38;5023901;28;20974;-80
2023/11/03 04:08:47;;;;;;;2.43;1.17;;;8.70;99.90;;;9.25;100.00;95125.69;5028006;28;20469;-79
2023/11/03 04:11:18;;;;;;;7.47;1.70;;;8.60;99.90;;;9.30;100.00;95128.31;5027277;28;20573;-79
2023/11/03 04:13:48;;;;;;;3.33;1.47;;;8.80;99.90;;;9.30;100.00;95128.31;5025985;28;20472;-79
2023/11/03 04:16:18;;;;;;;1.77;1.10;;;8.80;99.90;;;9.28;100.00;95121.78;5029015;28;20502;-79
2023/11/03 04:18:48;;;;;;;3.33;1.37;;;8.70;99.90;;;9.31;100.00;95131.72;5030073;28;20462;-78
2023/11/03 04:21:18;;;;;;;8.20;1.37;;;8.80;99.90;;;9.27;100.00;95130.63;5030404;28;20469;-77
2023/11/03 04:23:48;;;;;;;5.20;1.07;;;8.80;99.90;;;9.21;100.00;95132.44;5030776;28;20477;-78
2023/11/03 04:26:19;;;;;;;5.33;1.67;;;8.80;99.90;;;9.16;100.00;95124.59;5027152;28;21067;-78
2023/11/03 04:28:48;;;;;;;7.43;1.17;;;8.70;99.90;;;9.16;100.00;95121.19;5029659;28;20461;-78
2023/11/03 04:31:19;;;;;;;7.77;1.50;;;8.80;99.90;;;9.20;100.00;95124.88;5028768;28;20465;-79
2023/11/03 04:33:49;;;;;;;3.27;1.13;;;8.70;99.90;;;9.13;100.00;95127.66;5030036;28;20524;-78
2023/11/03 04:36:20;;;;;;;4.03;1.20;;;8.70;99.90;;;9.16;100.00;95127.19;5028605;28;20525;-78
2023/11/03 04:38:51;;;;;;;3.77;1.50;;;8.70;99.90;;;9.15;100.00;95133.44;5027678;28;20466;-77
2023/11/03 04:41:21;;;;;;;5.37;1.57;;;8.60;99.90;;;9.14;100.00;95134.47;5027782;28;20869;-78
2023/11/03 04:44:08;;;;;;;5.03;1.60;;;8.60;99.90;;;9.14;100.00;95137.06;5027761;28;20466;-79
2023/11/03 04:46:41;;;;;;;29.33;8.13;;;8.70;99.90;;;9.15;100.00;95149.09;5028941;28;20898;-77
2023/11/03 04:49:11;;;;;;;3.20;1.37;;;8.50;99.90;;;9.18;100.00;95138.16;5025411;28;20457;-80
2023/11/03 04:51:42;;;;;;;7.73;1.70;;;8.70;99.90;;;9.15;100.00;95141.25;5026264;28;20473;-79
2023/11/03 04:54:13;;;;;;;7.37;1.23;;;8.60;99.90;;;9.21;100.00;95150.69;5026288;28;20466;-80
2023/11/03 04:56:45;;;;;;;6.20;1.27;;;8.70;99.90;;;9.21;100.00;95142.06;5027247;28;20501;-79
2023/11/03 04:59:15;;;;;;;5.27;1.23;;;8.70;99.90;;;9.22;100.00;95136.63;5025265;28;20493;-79
2023/11/03 05:01:46;;;;;;;16.37;2.03;;;8.70;99.90;;;9.25;100.00;95133.50;5023848;28;20474;-79
2023/11/03 05:04:17;;;;;;;9.00;1.63;;;8.70;99.90;;;9.26;100.00;95134.31;5027423;28;20884;-81
2023/11/03 05:06:47;;;;;;;3.43;1.17;;;8.70;99.90;;;9.27;100.00;95141.84;5026167;28;20476;-80
2023/11/03 05:09:19;;;;;;;3.50;1.97;;;8.70;99.90;;;9.24;100.00;95144.97;5024882;28;20549;-78
2023/11/03 05:11:48;;;;;;;5.13;1.60;;;8.60;99.90;;;9.25;100.00;95149.16;5024011;28;20532;-80
2023/11/03 05:14:19;;;;;;;2.90;1.10;;;8.60;99.90;;;9.29;100.00;95150.22;5030609;28;20466;-80
2023/11/03 05:16:49;;;;;;;6.43;1.80;;;8.70;99.90;;;9.30;100.00;95156.25;5027905;28;20500;-80
2023/11/03 05:19:20;;;;;;;7.40;1.57;;;8.70;99.90;;;9.28;100.00;95156.47;5027094;28;20470;-79
2023/11/03 05:21:52;;;;;;;7.30;1.33;;;8.60;99.90;;;9.27;100.00;95152.28;5028725;28;20462;-80
2023/11/03 05:24:24;;;;;;;2.80;1.10;;;8.60;99.90;;;9.31;100.00;95148.16;5027109;28;20470;-80
2023/11/03 05:26:53;;;;;;;5.10;1.60;;;8.70;99.90;;;9.26;100.00;95150.72;5025523;28;20469;-80
2023/11/03 05:29:23;;;;;;;6.20;2.70;;;8.70;99.90;;;9.29;100.00;95155.44;5024043;28;20461;-80
2023/11/03 05:31:57;;;;;;;4.30;1.50;;;8.60;99.90;;;9.25;100.00;95146.53;5023489;28;20478;-80
2023/11/03 05:34:28;;;;;;;5.03;1.85;;;8.70;99.90;;;9.29;100.00;95160.66;5024757;28;20468;-81
2023/11/03 05:36:58;;;;;;;11.13;1.70;;;8.70;99.90;;;9.26;100.00;95155.16;5028988;28;20211;-80
2023/11/03 05:39:30;;;;;;;7.10;1.60;;;8.70;99.90;;;9.25;100.00;95167.41;5028541;28;20516;-81
2023/11/03 05:42:00;;;;;;;4.67;1.33;;;8.70;99.90;;;9.27;100.00;95182.78;5027778;28;20557;-81
2023/11/03 05:44:32;;;;;;;4.63;1.37;;;8.70;99.90;;;9.16;100.00;95186.38;5026649;28;20454;-81
2023/11/03 05:47:02;;;;;;;6.33;1.63;;;8.50;99.90;;;9.19;100.00;95197.09;5026892;28;20468;-81
2023/11/03 05:49:35;;;;;;;4.20;1.20;;;8.60;99.90;;;9.24;100.00;95199.72;5028254;28;20553;-81
2023/11/03 05:52:07;;;;;;;3.67;1.40;;;8.60;99.90;;;9.23;100.00;95187.75;5027567;28;20465;-80
2023/11/03 05:54:39;;;;;;;12.53;1.83;;;8.50;99.90;;;9.20;100.00;95193.41;5030784;28;20458;-81
2023/11/03 05:57:09;;;;;;;7.30;1.60;;;8.50;99.90;;;9.22;100.00;95187.97;5031586;28;20485;-81
2023/11/03 05:59:39;;;;;;;11.73;1.90;;;8.60;99.90;;;9.19;100.00;95176.22;5033227;28;20468;-81
2023/11/03 06:02:08;;;;;;;4.20;1.70;;;8.50;99.90;;;9.20;100.00;95177.03;5031804;28;20560;-82
2023/11/03 06:04:39;;;;;;;2.57;1.10;;;8.50;99.90;;;9.23;100.00;95182.53;5032916;28;21721;-80
2023/11/03 06:07:10;;;;;;;5.23;1.47;;;8.50;99.90;;;9.22;100.00;95174.94;5032265;28;20465;-81
2023/11/03 06:09:41;;;;;;;1.97;1.30;;;8.50;99.90;;;9.20;100.00;95182.22;5030860;28;20584;-81
2023/11/03 06:12:11;;;;;;;6.20;1.67;;;8.60;99.90;;;9.21;100.00;95179.38;5032002;28;20474;-81
2023/11/03 06:14:41;;;;;;;2.70;1.40;;;8.40;99.90;;;9.19;100.00;95186.66;5035170;28;20458;-80
2023/11/03 06:17:12;;;;;;;3.33;1.73;;;8.50;99.90;;;9.15;100.00;95195.22;5033346;28;20517;-81
2023/11/03 06:19:42;;;;;;;2.60;1.40;;;8.50;99.90;;;9.17;100.00;95199.13;5034877;28;20466;-80
2023/11/03 06:22:11;;;;;;;4.97;1.30;;;8.60;99.90;;;9.20;100.00;95206.47;5031941;28;20499;-81
2023/11/03 06:24:43;;;;;;;6.97;1.60;;;8.50;99.90;;;9.21;100.00;95210.66;5032424;28;20552;-81
2023/11/03 06:27:14;;;;;;;2.40;1.57;;;8.50;99.90;;;9.18;100.00;95213.75;5033218;28;20969;-81
2023/11/03 06:29:44;;;;;;;7.37;1.70;;;8.50;99.90;;;9.19;100.00;95210.13;5034620;28;20461;-81
2023/11/03 06:32:13;;;;;;;2.30;1.10;;;8.50;99.90;;;9.22;100.00;95211.44;5032448;28;20469;-81
2023/11/03 06:34:43;;;;;;;3.20;1.33;;;8.50;99.90;;;9.14;100.00;95210.06;5032657;28;20462;-81
2023/11/03 06:37:13;;;;;;;3.93;1.30;;;8.40;99.90;;;9.14;100.00;95215.28;5031128;28;20508;-81
2023/11/03 06:39:45;;;;;;;6.73;1.57;;;8.40;99.90;;;9.16;100.00;95217.66;5034018;28;20504;-81
2023/11/03 06:42:17;;;;;;;6.67;1.40;;;8.40;99.90;;;9.19;100.00;95228.38;5031159;28;20948;-80
2023/11/03 06:44:47;;;;;;;3.30;1.60;;;8.40;99.90;;;9.18;100.00;95237.22;5033509;28;20462;-81
2023/11/03 06:47:17;;;;;;;13.40;1.30;;;8.40;99.90;;;9.17;100.00;95238.25;5036070;28;20472;-81
2023/11/03 06:49:47;;;;;;;4.50;1.47;;;8.40;99.90;;;9.17;100.00;95246.06;5034402;28;20460;-81
2023/11/03 06:52:18;;;;;;;2.20;1.27;;;8.40;99.90;;;9.18;100.00;95260.69;5034327;28;20473;-81
2023/11/03 06:54:51;;;;;;;5.00;1.47;;;8.50;99.90;;;9.13;100.00;95273.66;5034664;28;20585;-81
2023/11/03 06:57:21;;;;;;;9.53;2.27;;;8.30;99.90;;;9.13;100.00;95286.69;5033031;28;20563;-81
2023/11/03 06:59:52;;;;;;;8.17;1.50;;;8.30;99.90;;;9.15;100.00;95283.84;5033427;28;20458;-81
2023/11/03 07:02:23;;;;;;;4.17;1.53;;;8.40;99.90;;;9.19;100.00;95301.38;5032668;28;20476;-81
2023/11/03 07:04:54;;;;;;;8.33;2.00;;;8.40;99.90;;;9.21;100.00;95301.09;5032959;28;20471;-80
2023/11/03 07:07:24;;;;;;;3.60;1.47;;;8.40;99.90;;;9.16;100.00;95309.69;5034190;28;20462;-80
2023/11/03 07:09:57;;;;;;;11.00;1.30;;;8.40;99.90;;;9.15;100.00;95315.91;5029482;28;20592;-79
2023/11/03 07:12:27;;;;;;;8.10;1.40;;;8.40;99.90;;;9.21;100.00;95319.34;5029764;28;20546;-80
2023/11/03 07:14:56;;;;;;;2.40;1.50;;;8.40;99.90;;;9.22;100.00;95332.16;5030550;28;20454;-80
2023/11/03 07:17:26;;;;;;;4.50;1.10;;;8.40;99.90;;;9.23;100.00;95349.38;5028782;28;20506;-80
2023/11/03 07:19:57;;;;;;;3.20;1.27;;;8.50;99.90;;;9.23;100.00;95345.97;5031056;28;20519;-80
2023/11/03 07:22:26;;;;;;;3.57;1.43;;;8.60;99.90;;;9.20;100.00;95360.28;5029777;28;20508;-80
2023/11/03 07:24:57;;;;;;;11.30;1.60;;;8.70;99.90;;;9.18;100.00;95351.94;5032429;28;20469;-80
2023/11/03 07:27:28;;;;;;;15.73;1.70;;;8.70;99.90;;;9.10;100.00;95355.75;5029862;28;20464;-81
2023/11/03 07:29:59;;;;;;;5.23;1.77;;;8.50;99.90;;;9.12;100.00;95354.72;5032040;28;20457;-80
2023/11/03 07:32:30;;;;;;;5.10;1.77;;;8.40;99.90;;;9.13;100.00;95345.88;5028931;28;20488;-80
2023/11/03 07:35:03;;;;;;;1.90;1.47;;;8.40;99.90;;;9.13;100.00;95349.25;5032401;28;20455;-79
2023/11/03 07:37:35;;;;;;;4.50;1.50;;;8.40;99.90;;;9.11;100.00;95353.94;5032457;28;20888;-80
2023/11/03 07:40:10;;;;;;;4.83;1.27;;;8.40;99.90;;;9.16;100.00;95358.41;5033170;28;20493;-79
2023/11/03 07:42:41;;;;;;;2.70;1.10;;;8.40;99.90;;;9.14;100.00;95356.03;5031819;28;20496;-80
2023/11/03 07:45:13;;;;;;;1.77;1.33;;;8.40;99.90;;;9.17;100.00;95379.00;5029653;28;20462;-79
2023/11/03 07:47:44;;;;;;;2.10;1.23;;;8.40;99.90;;;9.20;100.00;95381.13;5032311;28;20516;-79
2023/11/03 07:50:16;;;;;;;4.40;1.40;;;8.40;99.90;;;9.23;100.00;95387.69;5029176;28;20466;-79
2023/11/03 07:52:47;;;;;;;6.90;1.60;;;8.40;99.90;;;9.26;100.00;95389.81;5028880;28;20496;-80
2023/11/03 07:55:20;;;;;;;3.73;1.37;;;8.40;99.90;;;9.25;100.00;95389.03;5028389;28;20469;-80
2023/11/03 07:57:50;;;;;;;2.50;1.10;;;8.40;99.90;;;9.25;100.00;95389.03;5029329;28;20496;-80
2023/11/03 08:00:22;;;;;;;4.87;1.27;;;8.50;99.90;;;9.22;100.00;95386.13;5029506;28;20961;-80
2023/11/03 08:02:54;;;;;;;2.80;1.27;;;8.60;99.90;;;9.21;100.00;95385.31;5028585;28;20467;-80
2023/11/03 08:05:26;;;;;;;4.83;1.20;;;8.50;99.90;;;9.21;100.00;95385.31;5027398;28;20453;-80
2023/11/03 08:07:57;;;;;;;3.13;1.40;;;8.60;99.90;;;9.25;100.00;95398.66;5028882;28;20473;-79
2023/11/03 08:10:29;;;;;;;7.80;1.30;;;8.50;99.90;;;9.28;100.00;95396.34;5029890;28;20473;-79
2023/11/03 08:12:59;;;;;;;8.20;1.47;;;8.50;99.90;;;9.27;100.00;95397.38;5027715;28;21032;-79
2023/11/03 08:15:28;;;;;;;5.93;1.70;;;8.40;99.90;;;9.23;100.00;95393.72;5030330;28;20465;-79
2023/11/03 08:17:59;;;;;;;9.07;2.00;;;8.40;99.90;;;9.16;100.00;95402.75;5028447;28;20500;-79
2023/11/03 08:20:30;;;;;;;4.50;1.93;;;8.30;99.90;;;9.16;100.00;95406.13;5028480;28;20490;-79
2023/11/03 08:23:00;;;;;;;10.43;1.43;;;8.30;99.90;;;9.19;100.00;95400.44;5030111;28;20466;-80
2023/11/03 08:25:31;;;;;;;7.30;1.57;;;8.30;99.90;;;9.11;100.00;95408.66;5028598;28;20951;-79
2023/11/03 08:28:01;;;;;;;9.90;1.30;;;8.30;99.90;;;9.09;100.00;95413.34;5028890;28;20460;-81
2023/11/03 08:30:31;;;;;;;3.33;1.40;;;8.30;99.90;;;9.04;100.00;95415.88;5029388;28;21118;-79
2023/11/03 08:33:01;;;;;;;3.17;1.20;;;8.20;99.90;;;9.08;100.00;95414.38;5027967;28;20474;-79
2023/11/03 08:35:31;;;;;;;11.00;1.90;;;8.20;99.90;;;9.12;100.00;95415.47;5027811;28;20472;-80
2023/11/03 08:38:02;;;;;;;2.77;1.40;;;8.40;99.90;;;9.15;100.00;95417.59;5029387;28;20485;-79
2023/11/03 08:40:34;;;;;;;4.40;1.57;;;8.30;99.90;;;9.15;100.00;95412.38;5029095;28;21256;-80
2023/11/03 08:43:05;;;;;;;4.03;1.70;;;8.30;99.90;;;9.22;100.00;95410.38;5028173;28;20459;-79
2023/11/03 08:45:34;;;;;;;1.63;1.10;;;8.40;99.90;;;9.29;100.00;95408.38;5027711;28;20469;-79
2023/11/03 08:48:04;;;;;;;4.83;1.00;;;8.50;99.90;;;9.28;100.00;95406.00;5029365;28;20474;-80
2023/11/03 08:50:34;;;;;;;5.33;1.57;;;8.50;99.90;;;9.28;100.00;95414.59;5028030;28;20948;-79
2023/11/03 08:53:04;;;;;;;1.90;1.40;;;8.50;99.90;;;9.34;100.00;95413.63;5030219;28;20497;-79
2023/11/03 08:55:37;;;;;;;3.80;1.80;;;8.60;99.90;;;9.37;100.00;95413.13;5029562;28;20469;-80
2023/11/03 08:58:07;;;;;;;7.23;1.67;;;8.60;99.90;;;9.35;100.00;95414.41;5029978;28;20490;-79
2023/11/03 09:00:51;;;;;;;2.70;1.60;;;8.70;99.90;;;9.36;100.00;95424.63;5027664;28;20995;-79
2023/11/03 09:03:21;;;;;;;14.60;1.40;;;8.80;99.90;;;9.34;100.00;95429.28;5029248;28;20493;-79
2023/11/03 09:05:52;;;;;;;5.10;1.60;;;8.70;99.90;;;9.38;100.00;95429.56;5029703;28;20454;-80
2023/11/03 09:08:21;;;;;;;7.57;1.47;;;8.80;99.90;;;9.37;100.00;95436.59;5026771;28;20480;-79
2023/11/03 09:10:52;;;;;;;3.07;1.40;;;8.80;99.90;;;9.46;100.00;95435.16;5031575;28;20828;-80
2023/11/03 09:13:23;;;;;;;4.53;1.53;;;8.80;99.90;;;9.38;100.00;95432.97;5032054;28;20549;-80
2023/11/03 09:15:53;;;;;;;2.93;1.43;;;8.90;99.90;;;9.37;100.00;95434.00;5029111;28;20495;-79
2023/11/03 09:18:24;;;;;;;4.50;1.40;;;8.70;99.90;;;9.41;100.00;95450.75;5030254;28;20584;-79
2023/11/03 09:20:55;;;;;;;3.10;1.50;;;8.60;99.90;;;9.42;100.00;95439.28;5030311;28;20555;-79
2023/11/03 09:23:25;;;;;;;9.10;1.87;;;8.70;99.90;;;9.41;100.00;95450.75;5030210;28;20453;-79
2023/11/03 09:25:57;;;;;;;4.40;1.80;;;8.60;99.90;;;9.46;100.00;95450.03;5029843;28;21047;-79
2023/11/03 09:28:27;;;;;;;2.60;1.23;;;8.70;99.90;;;9.43;100.00;95453.91;5029884;28;21031;-79
2023/11/03 09:30:59;;;;;;;4.00;1.27;;;8.70;99.90;;;9.44;100.00;95445.03;5031157;28;20545;-79
2023/11/03 09:33:30;;;;;;;2.70;1.40;;;8.80;99.90;;;9.49;100.00;95468.59;5033347;28;20842;-80
2023/11/03 09:36:00;;;;;;;2.77;1.33;;;8.80;99.90;;;9.46;100.00;95457.84;5032402;28;20953;-79
2023/11/03 09:38:31;;;;;;;7.03;1.73;;;8.80;99.90;;;9.46;100.00;95463.84;5033430;28;20493;-79
2023/11/03 09:41:03;;;;;;;3.60;1.40;;;8.80;99.90;;;9.47;100.00;95460.22;5034756;28;20461;-79
2023/11/03 09:43:34;;;;;;;4.83;1.20;;;8.90;99.90;;;9.49;100.00;95471.19;5033036;28;20544;-80
2023/11/03 09:46:06;;;;;;;3.97;1.80;;;8.80;99.90;;;9.53;100.00;95474.88;5037263;28;20545;-79
2023/11/03 09:48:37;;;;;;;9.03;1.83;;;8.80;99.90;;;9.51;100.00;95469.13;5033435;28;20549;-79
2023/11/03 09:51:09;;;;;;;4.30;1.67;;;8.80;99.90;;;9.47;100.00;95470.66;5032103;28;20543;-79
2023/11/03 09:53:45;;;;;;;7.03;1.40;;;8.70;99.90;;;9.45;100.00;95477.91;5032031;28;20461;-79
2023/11/03 09:56:18;;;;;;;3.17;1.43;;;8.70;99.90;;;9.50;100.00;95474.59;5031296;28;20571;-81
2023/11/03 09:58:48;;;;;;;11.97;1.47;;;8.70;99.90;;;9.51;100.00;95478.78;5031515;28;20968;-79
2023/11/03 10:01:19;;;;;;;5.20;1.83;;;8.80;99.90;;;9.53;100.00;95480.09;5033266;28;20469;-80
2023/11/03 10:03:49;;;;;;;2.83;1.23;;;8.80;99.90;;;9.52;100.00;95481.13;5032509;28;20573;-79
2023/11/03 10:06:20;;;;;;;10.47;1.60;;;8.90;99.90;;;9.50;100.00;95483.22;5032699;28;20875;-79
2023/11/03 10:08:53;;;;;;;3.73;1.73;;;8.90;99.90;;;9.53;100.00;95480.09;5034273;28;20508;-79
2023/11/03 10:11:25;;;;;;;7.93;2.37;;;9.00;99.90;;;9.58;100.00;95477.53;5030980;28;20461;-80
2023/11/03 10:13:55;;;;;;;8.30;1.83;;;9.00;99.90;;;9.67;100.00;95479.72;5033442;28;20520;-82
2023/11/03 10:16:26;;;;;;;5.03;1.60;;;9.00;99.90;;;9.70;100.00;95476.63;5035605;28;20473;-79
2023/11/03 10:18:57;;;;;;;6.00;1.73;;;9.10;99.90;;;9.67;100.00;95472.69;5034497;28;20476;-79
2023/11/03 10:21:29;;;;;;;5.53;1.40;;;9.20;99.90;;;9.58;100.00;95477.53;5034218;28;20466;-79
2023/11/03 10:24:01;;;;;;;8.07;1.70;;;9.20;99.90;;;9.58;100.00;95477.53;5034998;28;20828;-80
2023/11/03 10:26:33;;;;;;;6.90;1.87;;;9.20;99.90;;;9.67;100.00;95470.09;5034176;28;20453;-79
2023/11/03 10:29:06;;;;;;;5.33;1.60;;;9.20;99.90;;;9.72;100.00;95477.19;5035428;28;20472;-79
2023/11/03 10:31:36;;;;;;;6.57;1.53;;;9.10;99.90;;;9.69;100.00;95478.44;5031960;28;20482;-79
2023/11/03 10:34:05;;;;;;;6.90;1.70;;;9.10;99.90;;;9.70;100.00;95479.25;5035502;28;20489;-81
2023/11/03 10:36:36;;;;;;;5.10;1.60;;;9.10;99.90;;;9.66;100.00;95478.16;5034718;28;20458;-80
2023/11/03 10:39:06;;;;;;;8.33;1.60;;;9.10;99.90;;;9.60;100.00;95491.16;5031930;28;20508;-79
2023/11/03 10:41:40;;;;;;;1.70;1.30;;;9.00;99.90;;;9.63;100.00;95489.06;5032952;28;20474;-79